createdAt,value
2019-04-29T00:00:53.040Z,24.52
2019-04-29T00:03:22.531Z,24.48
2019-04-29T00:05:51.963Z,24.55
2019-04-29T00:08:21.420Z,24.52
2019-04-29T00:10:50.834Z,24.58
2019-04-29T00:13:20.419Z,24.57
2019-04-29T00:16:17.864Z,24.57
2019-04-29T00:19:04.885Z,24.50
2019-04-29T00:21:34.373Z,24.49
2019-04-29T00:24:04.407Z,24.47
2019-04-29T00:26:33.894Z,24.48
2019-04-29T00:29:03.323Z,24.51
2019-04-29T00:31:32.739Z,24.51
2019-04-29T00:34:02.167Z,24.49
2019-04-29T00:36:36.664Z,24.46
2019-04-29T00:39:25.644Z,24.50
2019-04-29T00:42:10.396Z,24.45
2019-04-29T00:44:39.817Z,24.43
2019-04-29T00:47:09.246Z,24.46
2019-04-29T00:49:38.652Z,24.44
2019-04-29T00:52:08.165Z,24.44
2019-04-29T00:55:01.838Z,24.46
2019-04-29T00:57:31.252Z,24.48
2019-04-29T01:00:00.647Z,24.49
2019-04-29T01:02:30.092Z,24.44
2019-04-29T01:04:59.530Z,24.44
2019-04-29T01:07:28.955Z,24.42
2019-04-29T01:09:58.354Z,24.43
2019-04-29T01:12:27.752Z,24.44
2019-04-29T01:14:57.185Z,24.42
2019-04-29T01:17:27.358Z,24.43
2019-04-29T01:19:56.772Z,24.43
2019-04-29T01:22:26.200Z,24.39
2019-04-29T01:24:55.625Z,24.37
2019-04-29T01:27:29.686Z,24.37
2019-04-29T01:29:59.108Z,24.36
2019-04-29T01:32:28.607Z,24.31
2019-04-29T01:34:58.045Z,24.36
2019-04-29T01:37:37.144Z,24.37
2019-04-29T01:40:16.642Z,24.38
2019-04-29T01:42:46.052Z,24.37
2019-04-29T01:45:15.474Z,24.36
2019-04-29T01:47:44.893Z,24.34
2019-04-29T01:50:14.298Z,24.33
2019-04-29T01:52:43.713Z,24.38
2019-04-29T01:55:13.163Z,24.35
2019-04-29T01:57:42.571Z,24.33
2019-04-29T02:00:12.597Z,24.37
2019-04-29T02:02:42.072Z,24.37
2019-04-29T02:05:11.519Z,24.36
2019-04-29T02:07:40.924Z,24.36
2019-04-29T02:10:25.749Z,24.38
2019-04-29T02:12:55.171Z,24.35
2019-04-29T02:15:24.608Z,24.32
2019-04-29T02:17:54.033Z,24.26
2019-04-29T02:20:23.442Z,24.37
2019-04-29T02:23:15.737Z,24.36
2019-04-29T02:25:45.808Z,24.38
2019-04-29T02:28:15.235Z,24.39
2019-04-29T02:30:46.533Z,24.40
2019-04-29T02:33:15.940Z,24.35
2019-04-29T02:35:45.361Z,24.35
2019-04-29T02:38:28.890Z,24.33
2019-04-29T02:41:08.088Z,24.35
2019-04-29T02:43:39.085Z,24.34
2019-04-29T02:46:08.493Z,24.38
2019-04-29T02:48:37.898Z,24.36
2019-04-29T02:51:07.304Z,24.38
2019-04-29T02:53:36.753Z,24.37
2019-04-29T02:56:06.168Z,24.39
2019-04-29T02:58:50.553Z,24.38
2019-04-29T03:01:53.992Z,24.40
2019-04-29T03:04:25.743Z,24.38
2019-04-29T03:06:55.197Z,24.32
2019-04-29T03:09:24.600Z,24.33
2019-04-29T03:11:53.998Z,24.32
2019-04-29T03:14:23.408Z,24.37
2019-04-29T03:16:52.838Z,24.37
2019-04-29T03:19:27.761Z,24.37
2019-04-29T03:21:58.804Z,24.37
2019-04-29T03:24:28.253Z,24.36
2019-04-29T03:26:57.671Z,24.37
2019-04-29T03:29:27.088Z,24.37
2019-04-29T03:31:58.009Z,24.35
2019-04-29T03:34:27.458Z,24.38
2019-04-29T03:36:56.861Z,24.37
2019-04-29T03:39:26.289Z,24.32
2019-04-29T03:41:55.705Z,24.32
2019-04-29T03:44:25.101Z,24.35
2019-04-29T03:46:54.496Z,24.34
2019-04-29T03:49:23.981Z,24.35
2019-04-29T03:51:53.412Z,24.36
2019-04-29T03:54:22.822Z,24.39
2019-04-29T03:56:52.237Z,24.41
2019-04-29T03:59:21.648Z,24.39
2019-04-29T04:02:12.940Z,24.37
2019-04-29T04:04:59.557Z,24.43
2019-04-29T04:07:43.888Z,24.46
2019-04-29T04:10:13.259Z,24.43
2019-04-29T04:12:42.691Z,24.42
2019-04-29T04:15:12.142Z,24.42
2019-04-29T04:17:47.062Z,24.39
2019-04-29T04:20:16.542Z,24.39
2019-04-29T04:22:49.182Z,24.35
2019-04-29T04:25:18.657Z,24.42
2019-04-29T04:27:48.105Z,24.41
2019-04-29T04:30:17.693Z,24.45
2019-04-29T04:32:47.119Z,24.48
2019-04-29T04:35:16.747Z,24.55
2019-04-29T04:37:46.165Z,24.42
2019-04-29T04:40:18.498Z,24.45
2019-04-29T04:42:47.915Z,24.46
2019-04-29T04:45:17.331Z,24.50
2019-04-29T04:47:46.734Z,24.51
2019-04-29T04:50:16.868Z,24.55
2019-04-29T04:52:46.261Z,24.53
2019-04-29T04:55:15.679Z,24.51
2019-04-29T04:57:45.094Z,24.53
2019-04-29T05:00:21.882Z,24.53
2019-04-29T05:02:51.292Z,24.52
2019-04-29T05:05:20.709Z,24.51
2019-04-29T05:07:50.117Z,24.53
2019-04-29T05:10:19.544Z,24.51
2019-04-29T05:12:48.950Z,24.56
2019-04-29T05:15:18.378Z,24.59
2019-04-29T05:17:47.808Z,24.58
2019-04-29T05:20:17.224Z,24.57
2019-04-29T05:23:01.797Z,24.55
2019-04-29T05:25:32.041Z,24.57
2019-04-29T05:28:01.504Z,24.56
2019-04-29T05:30:30.905Z,24.61
2019-04-29T05:33:00.313Z,24.57
2019-04-29T05:35:51.348Z,24.59
2019-04-29T05:38:34.364Z,24.61
2019-04-29T05:41:03.784Z,24.63
2019-04-29T05:43:52.043Z,24.63
2019-04-29T05:46:49.388Z,24.64
2019-04-29T05:49:23.492Z,24.66
2019-04-29T05:52:16.157Z,24.64
2019-04-29T05:54:45.599Z,24.65
2019-04-29T05:57:14.997Z,24.65
2019-04-29T05:59:47.846Z,24.67
2019-04-29T06:02:15.604Z,24.69
2019-04-29T06:04:48.150Z,24.68
2019-04-29T06:07:16.864Z,24.69
2019-04-29T06:09:47.290Z,24.66
2019-04-29T06:12:16.698Z,24.66
2019-04-29T06:14:46.130Z,24.64
2019-04-29T06:17:15.535Z,24.66
2019-04-29T06:19:44.939Z,24.64
2019-04-29T06:22:14.371Z,24.66
2019-04-29T06:24:43.786Z,24.65
2019-04-29T06:27:13.209Z,24.69
2019-04-29T06:29:42.600Z,24.67
2019-04-29T06:32:12.033Z,24.64
2019-04-29T06:34:41.825Z,24.61
2019-04-29T06:37:11.281Z,24.57
2019-04-29T06:39:40.694Z,24.61
2019-04-29T06:42:10.108Z,24.57
2019-04-29T06:44:39.524Z,24.62
2019-04-29T06:47:09.242Z,24.58
2019-04-29T06:49:38.644Z,24.55
2019-04-29T06:52:08.065Z,24.55
2019-04-29T06:54:37.499Z,24.56
2019-04-29T06:57:06.916Z,24.56
2019-04-29T06:59:36.335Z,24.60
2019-04-29T07:02:09.351Z,24.61
2019-04-29T07:04:39.588Z,24.60
2019-04-29T07:07:08.054Z,24.54
2019-04-29T07:09:37.467Z,24.58
2019-04-29T07:12:08.243Z,24.59
2019-04-29T07:14:38.704Z,24.63
2019-04-29T07:17:08.227Z,24.64
2019-04-29T07:19:37.626Z,24.63
2019-04-29T07:22:07.035Z,24.62
2019-04-29T07:24:36.475Z,24.64
2019-04-29T07:27:05.892Z,24.58
2019-04-29T07:29:37.937Z,24.59
2019-04-29T07:32:09.482Z,24.57
2019-04-29T07:34:39.642Z,24.57
2019-04-29T07:37:08.734Z,24.55
2019-04-29T07:39:38.147Z,24.52
2019-04-29T07:42:07.597Z,24.59
2019-04-29T07:44:48.842Z,24.62
2019-04-29T07:47:17.285Z,24.59
2019-04-29T07:49:47.296Z,24.60
2019-04-29T07:52:17.836Z,24.60
2019-04-29T07:54:48.195Z,24.61
2019-04-29T07:57:18.372Z,24.62
2019-04-29T07:59:47.815Z,24.55
2019-04-29T08:02:17.227Z,24.54
2019-04-29T08:04:46.645Z,24.57
2019-04-29T08:07:16.059Z,24.51
2019-04-29T08:09:45.483Z,24.46
2019-04-29T08:12:14.897Z,24.51
2019-04-29T08:14:44.494Z,24.50
2019-04-29T08:17:13.939Z,24.49
2019-04-29T08:19:43.375Z,24.42
2019-04-29T08:22:15.456Z,24.48
2019-04-29T08:24:45.952Z,24.44
2019-04-29T08:27:15.064Z,24.47
2019-04-29T08:29:44.487Z,24.50
2019-04-29T08:32:13.926Z,24.48
2019-04-29T08:34:43.360Z,24.48
2019-04-29T08:37:12.747Z,24.49
2019-04-29T08:39:42.220Z,24.43
2019-04-29T08:42:14.657Z,24.51
2019-04-29T08:45:01.836Z,24.54
2019-04-29T08:47:33.162Z,24.52
2019-04-29T08:50:02.585Z,24.59
2019-04-29T08:52:31.994Z,24.56
2019-04-29T08:55:01.440Z,24.56
2019-04-29T08:57:31.815Z,24.65
2019-04-29T09:00:02.063Z,24.61
2019-04-29T09:02:34.975Z,24.64
2019-04-29T09:05:02.623Z,24.59
2019-04-29T09:07:32.043Z,24.56
2019-04-29T09:10:03.560Z,24.62
2019-04-29T09:12:32.619Z,24.62
2019-04-29T09:15:02.045Z,24.60
2019-04-29T09:17:31.456Z,24.61
2019-04-29T09:20:00.872Z,24.56
2019-04-29T09:22:32.199Z,24.56
2019-04-29T09:25:21.536Z,24.57
2019-04-29T09:27:51.035Z,24.57
2019-04-29T09:30:20.455Z,24.57
2019-04-29T09:32:49.869Z,24.56
2019-04-29T09:35:19.285Z,24.61
2019-04-29T09:37:48.703Z,24.59
2019-04-29T09:40:20.135Z,24.56
2019-04-29T09:42:59.731Z,24.65
2019-04-29T09:45:43.024Z,24.58
2019-04-29T09:48:12.426Z,24.58
2019-04-29T09:50:41.835Z,24.62
2019-04-29T09:53:11.274Z,24.61
2019-04-29T09:55:41.306Z,24.56
2019-04-29T09:58:10.801Z,24.60
2019-04-29T10:01:18.629Z,24.62
2019-04-29T10:04:06.684Z,24.61
2019-04-29T10:06:37.467Z,24.66
2019-04-29T10:09:09.611Z,24.64
2019-04-29T10:11:39.024Z,24.66
2019-04-29T10:14:08.685Z,24.70
2019-04-29T10:16:59.396Z,24.72
2019-04-29T10:19:37.686Z,24.72
2019-04-29T10:22:07.126Z,24.70
2019-04-29T10:24:36.526Z,24.70
2019-04-29T10:27:07.275Z,24.74
2019-04-29T10:29:37.399Z,24.73
2019-04-29T10:32:08.689Z,24.74
2019-04-29T10:34:38.055Z,24.78
2019-04-29T10:37:07.517Z,24.82
2019-04-29T10:40:11.318Z,24.91
2019-04-29T10:42:44.712Z,24.87
2019-04-29T10:45:31.227Z,24.86
2019-04-29T10:48:18.646Z,24.82
2019-04-29T10:50:51.995Z,24.80
2019-04-29T10:53:19.245Z,24.80
2019-04-29T10:55:48.664Z,24.85
2019-04-29T10:58:22.483Z,24.85
2019-04-29T11:02:01.657Z,24.91
2019-04-29T11:04:31.699Z,24.88
2019-04-29T11:07:13.550Z,24.89
2019-04-29T11:09:46.403Z,24.79
2019-04-29T11:12:17.811Z,24.80
2019-04-29T11:14:47.455Z,24.79
2019-04-29T11:17:17.000Z,24.88
2019-04-29T11:19:46.393Z,24.80
2019-04-29T11:22:17.437Z,24.82
2019-04-29T11:25:08.492Z,24.82
2019-04-29T11:27:45.802Z,24.73
2019-04-29T11:30:18.421Z,24.66
2019-04-29T11:32:52.056Z,24.69
2019-04-29T11:35:44.434Z,24.85
2019-04-29T11:38:13.962Z,24.85
2019-04-29T11:40:44.509Z,24.95
2019-04-29T11:43:15.596Z,24.83
2019-04-29T11:45:46.176Z,24.76
2019-04-29T11:48:15.664Z,24.73
2019-04-29T11:51:06.984Z,24.72
2019-04-29T11:53:36.466Z,24.81
2019-04-29T11:56:05.977Z,24.84
2019-04-29T11:58:42.347Z,24.91
2019-04-29T12:01:20.627Z,24.97
2019-04-29T12:03:51.509Z,25.00
2019-04-29T12:06:21.873Z,24.90
2019-04-29T12:08:53.156Z,24.88
2019-04-29T12:11:22.640Z,24.88
2019-04-29T12:14:16.081Z,24.88
2019-04-29T12:16:49.106Z,24.91
2019-04-29T12:19:22.610Z,25.07
2019-04-29T12:21:51.984Z,25.25
2019-04-29T12:24:21.426Z,25.31
2019-04-29T12:26:50.855Z,25.20
2019-04-29T12:29:20.384Z,25.20
2019-04-29T12:32:07.121Z,25.17
2019-04-29T12:34:58.546Z,25.13
2019-04-29T12:37:46.790Z,25.13
2019-04-29T12:40:35.071Z,25.17
2019-04-29T12:43:38.233Z,25.21
2019-04-29T12:46:44.305Z,25.35
2019-04-29T12:49:14.221Z,25.22
2019-04-29T12:51:46.652Z,25.18
2019-04-29T12:54:17.113Z,25.24
2019-04-29T12:56:48.032Z,25.32
2019-04-29T12:59:18.368Z,25.29
2019-04-29T13:02:26.325Z,25.29
2019-04-29T13:05:09.726Z,25.37
2019-04-29T13:08:00.817Z,25.24
2019-04-29T13:10:55.224Z,25.30
2019-04-29T13:13:24.735Z,25.33
2019-04-29T13:16:13.013Z,25.32
2019-04-29T13:19:12.433Z,25.30
2019-04-29T13:21:39.467Z,25.30
2019-04-29T13:24:18.293Z,25.29
2019-04-29T13:26:42.987Z,25.26
2019-04-29T13:29:26.004Z,25.30
2019-04-29T13:31:42.596Z,25.33
2019-04-29T13:34:24.331Z,25.39
2019-04-29T13:36:57.489Z,25.46
2019-04-29T13:39:17.605Z,25.46
2019-04-29T13:41:56.896Z,25.42
2019-04-29T13:44:19.734Z,25.44
2019-04-29T13:47:06.988Z,25.45
2019-04-29T13:49:42.944Z,25.45
2019-04-29T13:52:12.941Z,25.48
2019-04-29T13:54:44.245Z,25.56
2019-04-29T13:57:16.278Z,25.51
2019-04-29T13:59:51.913Z,25.50
2019-04-29T14:02:33.378Z,25.48
2019-04-29T14:05:03.737Z,25.49
2019-04-29T14:07:33.159Z,25.54
2019-04-29T14:10:02.570Z,25.50
2019-04-29T14:12:49.381Z,25.54
2019-04-29T14:15:03.211Z,25.50
2019-04-29T14:17:35.604Z,25.51
2019-04-29T14:20:03.793Z,25.51
2019-04-29T14:22:33.205Z,25.55
2019-04-29T14:25:02.631Z,25.58
2019-04-29T14:27:32.042Z,25.56
2019-04-29T14:30:02.991Z,25.53
2019-04-29T14:32:36.002Z,25.48
2019-04-29T14:35:25.394Z,25.51
2019-04-29T14:37:59.952Z,25.53
2019-04-29T14:40:25.952Z,25.59
2019-04-29T14:43:26.835Z,25.54
2019-04-29T14:45:54.763Z,25.63
2019-04-29T14:48:41.587Z,25.64
2019-04-29T14:51:00.251Z,25.69
2019-04-29T14:53:29.698Z,25.76
2019-04-29T14:55:59.134Z,25.64
2019-04-29T14:58:28.542Z,25.59
2019-04-29T15:01:14.274Z,25.51
2019-04-29T15:04:17.222Z,25.55
2019-04-29T15:06:34.822Z,25.46
2019-04-29T15:09:05.029Z,25.53
2019-04-29T15:11:45.135Z,25.55
2019-04-29T15:14:47.689Z,25.51
2019-04-29T15:17:50.949Z,25.54
2019-04-29T15:20:39.677Z,25.56
2019-04-29T15:23:09.106Z,25.57
2019-04-29T15:25:39.531Z,25.54
2019-04-29T15:28:09.028Z,25.46
2019-04-29T15:30:38.746Z,25.46
2019-04-29T15:33:08.809Z,25.50
2019-04-29T15:35:38.590Z,25.47
2019-04-29T15:38:08.007Z,25.47
2019-04-29T15:40:42.860Z,25.49
2019-04-29T15:43:08.848Z,25.50
2019-04-29T15:45:40.570Z,25.48
2019-04-29T15:48:09.542Z,25.52
2019-04-29T15:50:39.152Z,25.49
2019-04-29T15:53:08.601Z,25.49
2019-04-29T15:55:39.602Z,25.50
2019-04-29T15:58:09.330Z,25.53
2019-04-29T16:00:40.607Z,25.57
2019-04-29T16:03:12.602Z,25.58
2019-04-29T16:06:19.680Z,25.58
2019-04-29T16:08:42.474Z,25.60
2019-04-29T16:11:34.656Z,25.54
2019-04-29T16:14:09.388Z,25.48
2019-04-29T16:16:36.560Z,25.50
2019-04-29T16:19:08.472Z,25.48
2019-04-29T16:21:39.511Z,25.48
2019-04-29T16:24:24.880Z,25.44
2019-04-29T16:26:39.476Z,25.64
2019-04-29T16:29:13.329Z,25.55
2019-04-29T16:31:40.060Z,25.53
2019-04-29T16:34:09.503Z,25.55
2019-04-29T16:36:43.666Z,25.50
2019-04-29T16:39:10.112Z,25.60
2019-04-29T16:41:58.032Z,25.61
2019-04-29T16:44:35.711Z,25.66
2019-04-29T16:46:55.762Z,25.62
2019-04-29T16:49:25.242Z,25.59
2019-04-29T16:51:55.964Z,25.61
2019-04-29T16:54:28.375Z,25.59
2019-04-29T16:56:56.629Z,25.68
2019-04-29T16:59:26.078Z,25.56
2019-04-29T17:01:55.519Z,25.65
2019-04-29T17:04:24.962Z,25.66
2019-04-29T17:07:11.875Z,25.70
2019-04-29T17:09:51.323Z,25.79
2019-04-29T17:12:21.210Z,25.70
2019-04-29T17:15:04.173Z,25.75
2019-04-29T17:17:29.120Z,25.77
2019-04-29T17:19:58.810Z,25.77
2019-04-29T17:22:28.292Z,25.78
2019-04-29T17:24:57.714Z,25.72
2019-04-29T17:27:58.059Z,25.82
2019-04-29T17:30:49.966Z,25.91
2019-04-29T17:33:27.775Z,25.78
2019-04-29T17:35:55.254Z,25.84
2019-04-29T17:38:24.702Z,25.75
2019-04-29T17:40:54.123Z,25.79
2019-04-29T17:43:42.924Z,25.79
2019-04-29T17:46:25.871Z,25.76
2019-04-29T17:49:02.600Z,25.73
2019-04-29T17:51:33.963Z,25.66
2019-04-29T17:54:05.354Z,25.67
2019-04-29T17:56:50.037Z,25.66
2019-04-29T17:59:45.861Z,25.64
2019-04-29T18:02:39.972Z,25.66
2019-04-29T18:05:20.381Z,25.68
2019-04-29T18:08:05.241Z,25.67
2019-04-29T18:10:45.788Z,25.74
2019-04-29T18:13:17.274Z,25.75
2019-04-29T18:16:00.086Z,25.55
2019-04-29T18:18:28.137Z,25.73
2019-04-29T18:21:22.667Z,25.75
2019-04-29T18:24:17.811Z,25.82
2019-04-29T18:27:00.257Z,25.88
2019-04-29T18:29:29.676Z,25.82
2019-04-29T18:32:00.578Z,25.72
2019-04-29T18:34:33.784Z,25.77
2019-04-29T18:37:01.636Z,25.84
2019-04-29T18:39:32.078Z,25.83
2019-04-29T18:42:03.120Z,25.99
2019-04-29T18:44:32.777Z,26.02
2019-04-29T18:47:02.301Z,26.01
2019-04-29T18:49:31.742Z,25.99
2019-04-29T18:52:02.124Z,26.00
2019-04-29T18:54:32.372Z,25.96
2019-04-29T18:57:01.974Z,25.88
2019-04-29T18:59:33.401Z,25.92
2019-04-29T19:02:07.710Z,25.94
2019-04-29T19:04:58.713Z,25.88
2019-04-29T19:07:31.857Z,25.88
2019-04-29T19:09:59.405Z,25.90
2019-04-29T19:12:29.097Z,25.88
2019-04-29T19:15:04.508Z,25.89
2019-04-29T19:17:34.009Z,25.83
2019-04-29T19:20:01.004Z,25.85
2019-04-29T19:22:30.444Z,25.86
2019-04-29T19:24:59.872Z,25.77
2019-04-29T19:27:30.590Z,25.76
2019-04-29T19:30:00.655Z,25.75
2019-04-29T19:32:30.198Z,25.80
2019-04-29T19:34:59.633Z,25.78
2019-04-29T19:37:32.365Z,25.78
2019-04-29T19:40:00.307Z,25.79
2019-04-29T19:42:35.524Z,25.82
2019-04-29T19:45:00.912Z,25.76
2019-04-29T19:47:30.357Z,25.79
2019-04-29T19:49:59.815Z,25.78
2019-04-29T19:52:31.784Z,25.76
2019-04-29T19:55:01.656Z,25.75
2019-04-29T19:57:31.606Z,25.74
2019-04-29T20:00:01.500Z,25.72
2019-04-29T20:02:31.731Z,25.70
2019-04-29T20:05:11.220Z,25.76
2019-04-29T20:07:43.426Z,25.68
2019-04-29T20:10:13.245Z,25.75
2019-04-29T20:12:46.164Z,25.74
2019-04-29T20:15:16.445Z,25.73
2019-04-29T20:18:10.785Z,25.68
2019-04-29T20:20:46.890Z,25.74
2019-04-29T20:23:24.831Z,25.80
2019-04-29T20:25:48.488Z,25.73
2019-04-29T20:28:21.199Z,25.63
2019-04-29T20:30:50.407Z,25.63
2019-04-29T20:33:20.911Z,25.64
2019-04-29T20:35:50.612Z,25.63
2019-04-29T20:38:20.254Z,25.61
2019-04-29T20:40:49.872Z,25.64
2019-04-29T20:43:20.954Z,25.62
2019-04-29T20:45:50.596Z,25.55
2019-04-29T20:48:20.171Z,25.62
2019-04-29T20:50:52.824Z,25.58
2019-04-29T20:53:33.502Z,25.61
2019-04-29T20:56:11.704Z,25.58
2019-04-29T20:58:33.250Z,25.57
2019-04-29T21:01:08.846Z,25.57
2019-04-29T21:03:35.740Z,25.49
2019-04-29T21:06:06.315Z,25.49
2019-04-29T21:08:35.987Z,25.51
2019-04-29T21:11:16.160Z,25.45
2019-04-29T21:13:57.281Z,25.45
2019-04-29T21:16:32.779Z,25.42
2019-04-29T21:19:08.834Z,25.42
2019-04-29T21:21:41.916Z,25.40
2019-04-29T21:24:13.866Z,25.41
2019-04-29T21:26:44.561Z,25.39
2019-04-29T21:29:15.805Z,25.37
2019-04-29T21:31:42.651Z,25.41
2019-04-29T21:34:13.111Z,25.37
2019-04-29T21:37:01.699Z,25.35
2019-04-29T21:39:37.889Z,25.34
2019-04-29T21:42:35.488Z,25.38
2019-04-29T21:45:08.263Z,25.40
2019-04-29T21:47:42.717Z,25.34
2019-04-29T21:50:05.856Z,25.33
2019-04-29T21:52:35.308Z,25.34
2019-04-29T21:55:05.222Z,25.33
2019-04-29T21:57:34.717Z,25.31
2019-04-29T22:00:05.683Z,25.33
2019-04-29T22:02:35.836Z,25.33
2019-04-29T22:05:09.617Z,25.31
2019-04-29T22:07:39.871Z,25.30
2019-04-29T22:10:08.661Z,25.37
2019-04-29T22:12:38.190Z,25.33
2019-04-29T22:15:07.780Z,25.31
2019-04-29T22:17:37.295Z,25.34
2019-04-29T22:20:08.353Z,25.44
2019-04-29T22:22:38.516Z,25.45
2019-04-29T22:25:10.009Z,25.49
2019-04-29T22:27:41.189Z,25.54
2019-04-29T22:30:16.810Z,25.55
2019-04-29T22:32:42.021Z,25.51
2019-04-29T22:35:11.427Z,25.54
2019-04-29T22:37:41.121Z,25.50
2019-04-29T22:40:10.544Z,25.46
2019-04-29T22:42:45.980Z,25.44
2019-04-29T22:45:16.152Z,25.47
2019-04-29T22:47:45.902Z,25.47
2019-04-29T22:50:15.312Z,25.47
2019-04-29T22:52:45.339Z,25.45
2019-04-29T22:55:15.590Z,25.44
2019-04-29T22:57:46.902Z,25.46
2019-04-29T23:00:18.550Z,25.46
2019-04-29T23:02:47.988Z,25.48
2019-04-29T23:05:17.576Z,25.48
2019-04-29T23:07:47.009Z,25.47
2019-04-29T23:10:19.872Z,25.42
2019-04-29T23:12:49.261Z,25.45
2019-04-29T23:15:22.475Z,25.43
2019-04-29T23:17:50.832Z,25.46
2019-04-29T23:20:42.223Z,25.44
2019-04-29T23:23:16.736Z,25.44
2019-04-29T23:25:49.212Z,25.40
2019-04-29T23:28:22.450Z,25.42
2019-04-29T23:30:52.123Z,25.42
2019-04-29T23:33:22.889Z,25.41
2019-04-29T23:35:52.327Z,25.41
2019-04-29T23:38:21.749Z,25.43
2019-04-29T23:40:54.657Z,25.41
2019-04-29T23:43:25.328Z,25.43
2019-04-29T23:45:56.983Z,25.43
2019-04-29T23:48:29.049Z,25.39
2019-04-29T23:50:58.146Z,25.42
2019-04-29T23:53:26.861Z,25.43
2019-04-29T23:56:00.128Z,25.37
2019-04-29T23:59:05.507Z,25.40
